Flight Track Log - Related Links

Times and Time Zones

All times are in EDT time to prevent confusion due to time zone crossing. See the PDT4233 flight status page for this flight to view local times or setup timezone preferences in your user account.

Time Position Orientation Groundspeed Altitude Reporting Facility
EDT Latitude Longitude Course Direction KTS MPH feet Rate Location/Type
Tue 01:57:04 PM 39.8833 -75.2000 311° West 116 133 700  Level Philadelphia TRACON
Tue 01:57:58 PM 39.9000 -75.1667 57° Northeast 128 147 2,000 1,211 Climbing Philadelphia TRACON
Tue 01:58:58 PM 39.9333 -75.1333 37° Northeast 168 193 3,000 1,053 Climbing Philadelphia TRACON
Tue 01:59:00 PM 40.0336 -75.3836 323° Northwest  Level FlightAware Approximate
Tue 01:59:52 PM 39.9833 -75.1333 360° North 171 197 4,000  Level Philadelphia TRACON
Tue 02:00:00 PM 40.0923 -75.4295 339° North  Level FlightAware Approximate
Tue 02:00:52 PM 40.0167 -75.1333 360° North 173 199 5,200  Level Philadelphia TRACON
Tue 02:01:00 PM 40.1408 -75.4908 323° Northwest  Level FlightAware Approximate
Tue 02:01:52 PM 40.0667 -75.1667 333° Northwest 161 185 6,500  Level Philadelphia TRACON
Tue 02:02:00 PM 40.1935 -75.5402 311° West  Level FlightAware Approximate
Tue 02:02:52 PM 40.0833 -75.2167 294° West 154 177 7,700  Level Philadelphia TRACON
Tue 02:04:33 PM 40.1078 -75.3058 290° West 166 191 9,000 484 Climbing New York Center
Tue 02:05:33 PM 40.1325 -75.3617 300° West 186 214 9,000 500 Level New York Center
Tue 02:06:33 PM 40.1631 -75.4317 300° West 195 224 10,000 850 Climbing New York Center
Tue 02:07:33 PM 40.1861 -75.4822 301° West 188 216 10,700 750 Climbing New York Center
Tue 02:08:33 PM 40.2133 -75.5358 304° West 188 216 11,500 800 Climbing New York Center
Tue 02:09:33 PM 40.2528 -75.5872 315° West 183 211 12,300 750 Climbing New York Center
Tue 02:10:33 PM 40.2864 -75.6333 314° West 178 205 13,000 650 Climbing New York Center
Tue 02:11:33 PM 40.3283 -75.6744 323° Northwest 183 211 13,600 700 Climbing New York Center
Tue 02:12:33 PM 40.3644 -75.7097 323° Northwest 183 211 14,400 800 Climbing New York Center
Tue 02:13:33 PM 40.4083 -75.7564 321° Northwest 183 211 15,200 750 Climbing New York Center
Tue 02:14:33 PM 40.4461 -75.8000 319° Northwest 183 211 15,900 400 Climbing New York Center
Tue 02:15:33 PM 40.4881 -75.8414 323° Northwest 178 205 16,000 50 Climbing New York Center
Tue 02:16:33 PM 40.5278 -75.8853 320° Northwest 195 224 16,000  Level New York Center
Tue 02:17:33 PM 40.5797 -75.9408 321° Northwest 210 242 16,000  Level New York Center
Tue 02:18:33 PM 40.6275 -75.9911 321° Northwest 217 250 16,000  Level New York Center
Tue 02:20:33 PM 40.7250 -76.0917 322° Northwest 223 257 16,000  Level New York Center
Tue 02:21:33 PM 40.7667 -76.1414 318° Northwest 218 251 16,000  Level New York Center
Tue 02:22:33 PM 40.8122 -76.1944 319° Northwest 224 258 16,000  Level New York Center
Tue 02:23:33 PM 40.8700 -76.2511 323° Northwest 229 264 16,000  Level New York Center
Tue 02:24:33 PM 40.9175 -76.3044 320° Northwest 229 264 16,000  Level New York Center
Tue 02:25:33 PM 40.9650 -76.3550 321° Northwest 229 264 16,000  Level New York Center
Tue 02:26:33 PM 41.0086 -76.4025 321° Northwest 224 258 16,000  Level New York Center
Tue 02:27:33 PM 41.0600 -76.4644 318° Northwest 230 265 16,000  Level New York Center
Tue 02:28:33 PM 41.1097 -76.5128 324° Northwest 230 265 16,000  Level New York Center
Tue 02:29:33 PM 41.1567 -76.5719 317° Northwest 230 265 16,000  Level New York Center
Tue 02:30:33 PM 41.2000 -76.6225 319° Northwest 235 270 16,000  Level New York Center
Tue 02:31:33 PM 41.2514 -76.6794 320° Northwest 229 264 16,000  Level New York Center
Tue 02:32:33 PM 41.2986 -76.7361 318° Northwest 234 269 16,000  Level New York Center
Tue 02:33:33 PM 41.3564 -76.7881 326° Northwest 228 262 16,000  Level New York Center
Tue 02:34:33 PM 41.4219 -76.8078 347° North 222 255 16,000  Level New York Center
Tue 02:35:33 PM 41.4853 -76.8328 344° North 229 264 16,000  Level New York Center
Tue 02:36:33 PM 41.5486 -76.8581 343° North 229 264 16,000  Level New York Center
Tue 02:37:33 PM 41.6147 -76.8722 351° North 234 269 16,000  Level New York Center
Tue 02:38:33 PM 41.6781 -76.8922 347° North 234 269 16,000  Level New York Center
Tue 02:39:33 PM 41.7325 -76.9303 332° Northwest 234 269 16,000  Level New York Center
Tue 02:40:57 PM 41.7817 -77.0125 309° West 226 260 16,000  Level Cleveland Center
Tue 02:41:59 PM 41.8178 -77.0819 305° West 226 260 16,000  Level Cleveland Center
Tue 02:43:01 PM 41.8622 -77.1617 307° West 226 260 16,000  Level Cleveland Center
Tue 02:44:04 PM 41.9017 -77.2267 309° West 226 260 16,000  Level Cleveland Center
Tue 02:45:06 PM 41.9386 -77.2969 305° West 226 260 16,000  Level Cleveland Center
Tue 02:46:08 PM 41.9786 -77.3631 309° West 227 261 16,000 -387 Level Cleveland Center
Tue 02:47:10 PM 42.0139 -77.4358 303° West 229 264 15,200 -871 Descending Cleveland Center
Tue 02:48:12 PM 42.0600 -77.5114 309° West 253 291 14,200 -1,065 Descending Cleveland Center
Tue 02:49:14 PM 42.1133 -77.6083 307° West 265 305 13,000 -1,065 Descending Cleveland Center
Tue 02:50:16 PM 42.1614 -77.6858 310° West 267 307 12,000 -968 Descending Cleveland Center
Tue 02:51:18 PM 42.2092 -77.7672 308° West 274 315 11,000 -484 Descending Cleveland Center
Tue 02:52:20 PM 42.2489 -77.8494 303° West 265 305 11,000  Level Cleveland Center
Tue 02:53:23 PM 42.2928 -77.9200 310° West 249 287 11,000  Level Cleveland Center
Tue 02:54:25 PM 42.3328 -77.9928 307° West 245 282 11,000  Level Cleveland Center
Tue 02:55:27 PM 42.3750 -78.0819 303° West 237 273 11,000 -97 Level Cleveland Center
Tue 02:56:29 PM 42.4178 -78.1508 310° West 237 273 10,800 -581 Descending Cleveland Center
Tue 02:57:31 PM 42.4608 -78.2272 307° West 248 285 9,800 -968 Descending Cleveland Center
Tue 02:58:33 PM 42.5031 -78.3119 304° West 264 304 8,800 -968 Descending Cleveland Center
Tue 02:59:35 PM 42.5478 -78.3969 306° West 273 314 7,800 -968 Descending Cleveland Center
Tue 03:00:37 PM 42.5919 -78.4781 307° West 271 312 6,800 -1,008 Descending Cleveland Center
Tue 03:01:40 PM 42.6442 -78.5694 308° West 271 312 5,700 -1,056 Descending Cleveland Center
Tue 03:02:42 PM 42.6900 -78.6533 307° West 269 310 4,600 -823 Descending Cleveland Center
Tue 03:03:44 PM 42.7350 -78.7333 307° West 257 296 4,000 -581 Descending Cleveland Center
Tue 03:04:46 PM 42.7844 -78.7919 319° Northwest 227 261 3,400 -484 Descending Cleveland Center
Tue 03:05:48 PM 42.8428 -78.8056 350° North 209 241 3,000 -677 Descending Cleveland Center
Tue 03:06:50 PM 42.8914 -78.7944 10° North 177 204 2,000 -629 Descending Cleveland Center
Tue 03:07:52 PM 42.9197 -78.7667 36° Northeast 163 188 1,700 -290 Descending Cleveland Center

Login

Don't have an account? Register now (free) for customized features, flight alerts, and more!